createdAt,value
2023-05-09T00:02:17.301Z,101336.71
2023-05-09T00:04:44.324Z,101337.67
2023-05-09T00:07:11.236Z,101335.34
2023-05-09T00:09:37.915Z,101337.20
2023-05-09T00:12:05.620Z,101335.95
2023-05-09T00:14:33.668Z,101331.23
2023-05-09T00:17:00.896Z,101332.45
2023-05-09T00:19:27.676Z,101330.92
2023-05-09T00:21:54.422Z,101332.45
2023-05-09T00:27:12.682Z,101341.05
2023-05-09T00:29:39.527Z,101339.45
2023-05-09T00:32:06.331Z,101340.66
2023-05-09T00:34:33.589Z,101341.27
2023-05-09T00:37:00.747Z,101342.02
2023-05-09T00:39:27.470Z,101342.02
2023-05-09T00:41:55.968Z,101340.30
2023-05-09T00:44:22.728Z,101337.79
2023-05-09T00:46:49.575Z,101335.56
2023-05-09T00:49:16.452Z,101339.16
2023-05-09T00:51:43.262Z,101338.00
2023-05-09T00:54:10.005Z,101339.21
2023-05-09T00:56:36.799Z,101338.27
2023-05-09T00:59:03.781Z,101338.00
2023-05-09T01:01:30.964Z,101338.77
2023-05-09T01:03:57.956Z,101337.76
2023-05-09T01:06:32.985Z,101337.25
2023-05-09T01:09:04.021Z,101337.34
2023-05-09T01:11:39.467Z,101334.11
2023-05-09T01:14:26.100Z,101334.83
2023-05-09T01:17:09.104Z,101333.45
2023-05-09T01:19:58.872Z,101335.34
2023-05-09T01:22:36.000Z,101333.38
2023-05-09T01:25:40.578Z,101335.85
2023-05-09T01:28:08.963Z,101333.23
2023-05-09T01:30:36.224Z,101335.29
2023-05-09T01:33:03.404Z,101336.20
2023-05-09T01:35:30.474Z,101336.39
2023-05-09T01:37:57.164Z,101335.61
2023-05-09T01:40:24.398Z,101334.45
2023-05-09T01:43:00.157Z,101335.92
2023-05-09T01:45:27.146Z,101338.27
2023-05-09T01:47:53.885Z,101338.20
2023-05-09T01:50:20.658Z,101336.29
2023-05-09T01:52:50.051Z,101333.36
2023-05-09T01:55:17.095Z,101333.08
2023-05-09T01:57:45.086Z,101330.13
2023-05-09T02:00:13.758Z,101328.97
2023-05-09T02:02:40.942Z,101333.23
2023-05-09T02:05:09.495Z,101330.66
2023-05-09T02:07:36.408Z,101334.28
2023-05-09T02:10:03.870Z,101335.02
2023-05-09T02:12:30.813Z,101335.56
2023-05-09T02:14:57.543Z,101336.08
2023-05-09T02:17:24.309Z,101334.17
2023-05-09T02:19:51.242Z,101334.55
2023-05-09T02:22:17.939Z,101332.77
2023-05-09T02:24:45.517Z,101337.48
2023-05-09T02:27:12.587Z,101335.34
2023-05-09T02:29:42.357Z,101334.00
2023-05-09T02:32:17.177Z,101334.88
2023-05-09T02:34:44.027Z,101337.95
2023-05-09T02:37:10.829Z,101339.13
2023-05-09T02:39:37.753Z,101341.35
2023-05-09T02:42:11.466Z,101342.10
2023-05-09T02:44:39.130Z,101345.14
2023-05-09T02:47:06.807Z,101344.94
2023-05-09T02:49:34.032Z,101343.33
2023-05-09T02:52:01.633Z,101341.48
2023-05-09T02:54:28.524Z,101343.67
2023-05-09T02:56:55.907Z,101348.41
2023-05-09T02:59:22.741Z,101345.77
2023-05-09T03:01:50.101Z,101352.56
2023-05-09T03:04:18.183Z,101348.70
2023-05-09T03:06:45.227Z,101348.48
2023-05-09T03:09:12.675Z,101348.20
2023-05-09T03:11:39.539Z,101350.32
2023-05-09T03:14:08.430Z,101351.60
2023-05-09T03:16:35.630Z,101356.14
2023-05-09T03:19:03.725Z,101354.56
2023-05-09T03:21:31.988Z,101363.32
2023-05-09T03:23:59.762Z,101359.94
2023-05-09T03:26:26.601Z,101361.73
2023-05-09T03:28:53.852Z,101363.98
2023-05-09T03:31:20.608Z,101366.19
2023-05-09T03:33:47.482Z,101365.17
2023-05-09T03:36:14.846Z,101368.61
2023-05-09T03:38:42.496Z,101370.10
2023-05-09T03:41:09.862Z,101371.44
2023-05-09T03:43:36.667Z,101374.56
2023-05-09T03:46:04.087Z,101376.11
2023-05-09T03:48:31.952Z,101374.38
2023-05-09T03:50:58.821Z,101374.14
2023-05-09T03:53:27.005Z,101376.53
2023-05-09T03:55:54.355Z,101375.29
2023-05-09T03:58:21.376Z,101374.48
2023-05-09T04:00:48.258Z,101376.77
2023-05-09T04:03:18.752Z,101376.24
2023-05-09T04:05:46.956Z,101375.96
2023-05-09T04:08:21.326Z,101376.11
2023-05-09T04:10:49.862Z,101375.34
2023-05-09T04:13:16.792Z,101382.09
2023-05-09T04:15:43.842Z,101378.11
2023-05-09T04:18:10.632Z,101382.25
2023-05-09T04:20:37.405Z,101379.44
2023-05-09T04:23:04.195Z,101380.10
2023-05-09T04:25:31.832Z,101384.39
2023-05-09T04:27:58.774Z,101384.19
2023-05-09T04:30:27.248Z,101383.92
2023-05-09T04:32:55.403Z,101387.41
2023-05-09T04:35:22.795Z,101389.41
2023-05-09T04:37:50.639Z,101393.13
2023-05-09T04:40:17.826Z,101392.73
2023-05-09T04:42:50.162Z,101394.92
2023-05-09T04:45:17.893Z,101399.49
2023-05-09T04:47:44.938Z,101396.54
2023-05-09T04:50:12.087Z,101399.03
2023-05-09T04:52:38.795Z,101393.38
2023-05-09T04:55:06.258Z,101395.13
2023-05-09T04:57:36.554Z,101389.48
2023-05-09T05:00:07.108Z,101391.17
2023-05-09T05:02:34.267Z,101389.74
2023-05-09T05:05:10.959Z,101392.18
2023-05-09T05:07:39.607Z,101389.98
2023-05-09T05:10:07.028Z,101396.11
2023-05-09T05:12:34.657Z,101393.59
2023-05-09T05:15:01.549Z,101393.51
2023-05-09T05:17:29.646Z,101391.66
2023-05-09T05:19:57.544Z,101392.60
2023-05-09T05:22:25.132Z,101394.04
2023-05-09T05:24:51.867Z,101399.25
2023-05-09T05:27:18.607Z,101401.36
2023-05-09T05:29:45.686Z,101396.64
2023-05-09T05:32:12.546Z,101396.14
2023-05-09T05:34:39.887Z,101397.17
2023-05-09T05:37:06.718Z,101400.48
2023-05-09T05:39:33.787Z,101399.13
2023-05-09T05:42:00.924Z,101399.34
2023-05-09T05:44:28.472Z,101399.70
2023-05-09T05:46:55.205Z,101400.27
2023-05-09T05:49:24.948Z,101394.18
2023-05-09T05:51:51.881Z,101396.45
2023-05-09T05:54:19.180Z,101397.89
2023-05-09T05:56:46.718Z,101396.59
2023-05-09T05:59:13.722Z,101396.61
2023-05-09T06:01:40.896Z,101396.89
2023-05-09T06:04:07.978Z,101400.42
2023-05-09T06:06:34.954Z,101396.60
2023-05-09T06:09:01.682Z,101399.59
2023-05-09T06:11:28.433Z,101397.41
2023-05-09T06:13:55.655Z,101395.45
2023-05-09T06:16:22.966Z,101399.70
2023-05-09T06:18:50.320Z,101392.71
2023-05-09T06:21:17.089Z,101397.77
2023-05-09T06:24:01.307Z,101394.17
2023-05-09T06:26:30.823Z,101397.06
2023-05-09T06:28:58.077Z,101393.58
2023-05-09T06:31:25.804Z,101392.70
2023-05-09T06:33:52.983Z,101393.17
2023-05-09T06:36:20.751Z,101389.73
2023-05-09T06:38:47.489Z,101391.66
2023-05-09T06:41:14.236Z,101383.89
2023-05-09T06:43:41.007Z,101385.95
2023-05-09T06:46:07.917Z,101383.50
2023-05-09T06:48:34.793Z,101387.48
2023-05-09T06:51:01.550Z,101385.29
2023-05-09T06:53:28.332Z,101380.88
2023-05-09T06:55:55.099Z,101382.83
2023-05-09T06:58:21.827Z,101379.41
2023-05-09T07:00:48.597Z,101374.25
2023-05-09T07:03:16.127Z,101377.83
2023-05-09T07:05:42.864Z,101379.51
2023-05-09T07:08:09.577Z,101378.45
2023-05-09T07:10:36.279Z,101374.41
2023-05-09T07:13:03.072Z,101373.75
2023-05-09T07:15:40.593Z,101367.85
2023-05-09T07:18:09.463Z,101372.88
2023-05-09T07:20:36.584Z,101366.86
2023-05-09T07:23:04.170Z,101367.52
2023-05-09T07:25:31.067Z,101363.27
2023-05-09T07:27:57.976Z,101357.83
2023-05-09T07:30:25.303Z,101361.17
2023-05-09T07:32:52.456Z,101353.23
2023-05-09T07:35:20.151Z,101352.31
2023-05-09T07:37:46.887Z,101353.39
2023-05-09T07:40:14.147Z,101345.23
2023-05-09T07:42:42.175Z,101348.47
2023-05-09T07:45:10.468Z,101344.42
2023-05-09T07:47:37.267Z,101335.77
2023-05-09T07:50:04.279Z,101339.55
2023-05-09T07:52:30.999Z,101335.85
2023-05-09T07:54:57.736Z,101334.92
2023-05-09T07:57:24.436Z,101335.11
2023-05-09T07:59:51.352Z,101333.89
2023-05-09T08:02:18.164Z,101316.67
2023-05-09T08:04:48.716Z,101326.99
2023-05-09T08:07:15.721Z,101321.98
2023-05-09T08:09:42.420Z,101332.77
2023-05-09T08:12:09.142Z,101338.08
2023-05-09T08:14:35.894Z,101336.70
2023-05-09T08:17:02.597Z,101327.73
2023-05-09T08:19:29.515Z,101324.88
2023-05-09T08:21:57.303Z,101319.06
2023-05-09T08:24:24.015Z,101320.77
2023-05-09T08:26:50.852Z,101319.71
2023-05-09T08:29:17.908Z,101322.58
2023-05-09T08:31:44.757Z,101323.77
2023-05-09T08:34:11.564Z,101320.26
2023-05-09T08:36:38.326Z,101320.63
2023-05-09T08:39:05.025Z,101315.17
2023-05-09T08:41:33.150Z,101314.33
2023-05-09T08:44:00.177Z,101304.71
2023-05-09T08:46:29.780Z,101302.48
2023-05-09T08:48:57.082Z,101302.39
2023-05-09T08:51:23.851Z,101300.75
2023-05-09T08:53:51.131Z,101304.55
2023-05-09T08:56:17.865Z,101304.55
2023-05-09T08:58:44.631Z,101306.41
2023-05-09T09:01:13.298Z,101308.79
2023-05-09T09:03:40.122Z,101303.69
2023-05-09T09:06:07.856Z,101303.61
2023-05-09T09:08:34.602Z,101301.14
2023-05-09T09:11:01.317Z,101300.83
2023-05-09T09:13:28.280Z,101304.26
2023-05-09T09:15:55.071Z,101298.75
2023-05-09T09:18:28.422Z,101289.10
2023-05-09T09:21:00.801Z,101278.81
2023-05-09T09:23:27.974Z,101276.94
2023-05-09T09:26:06.885Z,101270.77
2023-05-09T09:28:33.779Z,101272.75
2023-05-09T09:31:00.626Z,101277.62
2023-05-09T09:33:28.704Z,101278.50
2023-05-09T09:35:56.532Z,101283.83
2023-05-09T09:38:24.156Z,101287.61
2023-05-09T09:40:58.013Z,101286.99
2023-05-09T09:43:31.802Z,101281.69
2023-05-09T09:46:05.602Z,101285.06
2023-05-09T09:48:33.981Z,101281.77
2023-05-09T09:51:11.474Z,101281.08
2023-05-09T09:53:42.034Z,101280.42
2023-05-09T09:56:09.230Z,101277.54
2023-05-09T09:58:36.359Z,101274.18
2023-05-09T10:01:07.388Z,101275.29
2023-05-09T10:03:42.066Z,101273.31
2023-05-09T10:06:13.044Z,101273.64
2023-05-09T10:08:40.092Z,101280.41
2023-05-09T10:11:07.557Z,101282.73
2023-05-09T10:13:34.908Z,101280.55
2023-05-09T10:16:01.860Z,101278.29
2023-05-09T10:18:29.309Z,101285.30
2023-05-09T10:20:56.999Z,101279.80
2023-05-09T10:23:24.314Z,101277.21
2023-05-09T10:26:03.637Z,101272.70
2023-05-09T10:28:32.284Z,101271.45
2023-05-09T10:31:08.943Z,101273.46
2023-05-09T10:33:46.240Z,101272.86
2023-05-09T10:36:13.367Z,101267.33
2023-05-09T10:38:40.043Z,101266.48
2023-05-09T10:41:06.788Z,101261.80
2023-05-09T10:43:34.763Z,101261.08
2023-05-09T10:46:06.289Z,101263.06
2023-05-09T10:48:33.045Z,101258.64
2023-05-09T10:51:03.536Z,101254.63
2023-05-09T10:53:44.228Z,101261.13
2023-05-09T10:56:35.834Z,101259.25
2023-05-09T10:59:02.992Z,101258.11
2023-05-09T11:01:37.007Z,101250.33
2023-05-09T11:04:11.404Z,101250.55
2023-05-09T11:06:46.315Z,101248.08
2023-05-09T11:09:33.497Z,101256.70
2023-05-09T11:12:08.419Z,101256.62
2023-05-09T11:14:48.904Z,101252.60
2023-05-09T11:17:22.034Z,101244.30
2023-05-09T11:19:51.886Z,101239.60
2023-05-09T11:22:28.963Z,101233.65
2023-05-09T11:25:05.560Z,101230.27
2023-05-09T11:27:52.434Z,101231.11
2023-05-09T11:30:20.518Z,101226.89
2023-05-09T11:32:52.143Z,101225.73
2023-05-09T11:35:21.492Z,101227.56
2023-05-09T11:38:01.614Z,101223.44
2023-05-09T11:40:28.892Z,101227.54
2023-05-09T11:42:58.597Z,101225.23
2023-05-09T11:45:35.283Z,101221.85
2023-05-09T11:48:03.370Z,101221.69
2023-05-09T11:50:30.327Z,101218.92
2023-05-09T11:52:57.399Z,101221.41
2023-05-09T11:55:25.789Z,101219.95
2023-05-09T11:57:53.522Z,101221.91
2023-05-09T12:00:22.070Z,101216.91
2023-05-09T12:02:49.226Z,101212.83
2023-05-09T12:05:17.483Z,101211.57
2023-05-09T12:07:44.688Z,101207.98
2023-05-09T12:10:18.978Z,101205.56
2023-05-09T12:12:51.142Z,101205.84
2023-05-09T12:15:18.600Z,101200.11
2023-05-09T12:17:47.253Z,101197.59
2023-05-09T12:20:15.258Z,101198.27
2023-05-09T12:22:45.252Z,101189.70
2023-05-09T12:25:12.571Z,101189.56
2023-05-09T12:27:40.281Z,101190.79
2023-05-09T12:30:12.051Z,101190.09
2023-05-09T12:32:40.444Z,101188.68
2023-05-09T12:35:10.498Z,101184.73
2023-05-09T12:37:38.613Z,101176.45
2023-05-09T12:40:08.671Z,101172.46
2023-05-09T12:44:08.475Z,101173.02
2023-05-09T12:46:36.922Z,101170.20
2023-05-09T12:49:04.779Z,101171.16
2023-05-09T12:51:31.567Z,101170.74
2023-05-09T12:54:02.726Z,101164.92
2023-05-09T12:56:32.591Z,101167.02
2023-05-09T12:58:59.110Z,101161.94
2023-05-09T13:01:29.077Z,101163.65
2023-05-09T13:04:05.956Z,101158.92
2023-05-09T13:06:33.793Z,101162.23
2023-05-09T13:09:01.869Z,101163.27
2023-05-09T13:11:28.905Z,101161.16
2023-05-09T13:13:55.673Z,101157.49
2023-05-09T13:16:22.629Z,101150.96
2023-05-09T13:18:49.395Z,101153.59
2023-05-09T13:21:18.712Z,101153.41
2023-05-09T13:23:49.357Z,101150.36
2023-05-09T13:26:17.646Z,101151.67
2023-05-09T13:28:44.128Z,101152.13
2023-05-09T13:31:10.957Z,101154.27
2023-05-09T13:33:37.599Z,101156.05
2023-05-09T13:36:06.534Z,101150.84
2023-05-09T13:38:37.946Z,101147.77
2023-05-09T13:41:04.482Z,101149.48
2023-05-09T13:43:33.566Z,101146.77
2023-05-09T13:46:00.745Z,101151.77
2023-05-09T13:48:27.397Z,101147.86
2023-05-09T13:50:55.629Z,101146.91
2023-05-09T13:53:34.190Z,101147.96
2023-05-09T13:56:08.088Z,101149.42
2023-05-09T13:58:35.569Z,101147.17
2023-05-09T14:01:02.307Z,101146.70
2023-05-09T14:03:29.037Z,101143.14
2023-05-09T14:05:55.675Z,101140.91
2023-05-09T14:08:23.604Z,101139.23
2023-05-09T14:10:50.609Z,101137.66
2023-05-09T14:13:17.562Z,101135.66
2023-05-09T14:15:44.228Z,101134.81
2023-05-09T14:18:13.767Z,101135.29
2023-05-09T14:20:42.628Z,101136.44
2023-05-09T14:23:10.445Z,101134.96
2023-05-09T14:25:37.264Z,101134.46
2023-05-09T14:28:06.193Z,101132.70
2023-05-09T14:30:33.621Z,101130.10
2023-05-09T14:33:00.217Z,101128.64
2023-05-09T14:35:27.245Z,101127.75
2023-05-09T14:37:53.838Z,101125.77
2023-05-09T14:40:20.572Z,101125.40
2023-05-09T14:42:47.875Z,101126.41
2023-05-09T14:45:14.784Z,101124.08
2023-05-09T14:47:41.578Z,101124.99
2023-05-09T14:50:10.731Z,101126.85
2023-05-09T14:52:37.779Z,101126.12
2023-05-09T14:55:06.569Z,101127.45
2023-05-09T14:57:33.582Z,101127.50
2023-05-09T15:00:20.398Z,101124.98
2023-05-09T15:02:46.880Z,101121.41
2023-05-09T15:05:13.534Z,101120.51
2023-05-09T15:07:40.825Z,101118.06
2023-05-09T15:10:07.651Z,101118.05
2023-05-09T15:12:34.715Z,101119.80
2023-05-09T15:15:14.887Z,101116.76
2023-05-09T15:17:42.468Z,101115.48
2023-05-09T15:20:10.617Z,101113.80
2023-05-09T15:22:37.255Z,101113.58
2023-05-09T15:25:06.209Z,101111.77
2023-05-09T15:27:33.298Z,101117.58
2023-05-09T15:30:00.210Z,101116.63
2023-05-09T15:32:27.110Z,101119.00
2023-05-09T15:34:53.708Z,101119.98
2023-05-09T15:37:20.251Z,101115.96
2023-05-09T15:39:46.783Z,101118.53
2023-05-09T15:42:14.303Z,101119.16
2023-05-09T15:44:41.566Z,101114.81
2023-05-09T15:47:08.741Z,101116.52
2023-05-09T15:49:35.573Z,101114.45
2023-05-09T15:52:03.401Z,101116.57
2023-05-09T15:54:31.560Z,101116.98
2023-05-09T15:56:58.704Z,101112.00
2023-05-09T15:59:26.533Z,101111.11
2023-05-09T16:01:54.066Z,101115.70
2023-05-09T16:04:21.162Z,101109.08
2023-05-09T16:06:48.327Z,101105.92
2023-05-09T16:09:15.044Z,101108.89
2023-05-09T16:11:42.571Z,101105.12
2023-05-09T16:14:10.830Z,101098.05
2023-05-09T16:16:38.182Z,101095.50
2023-05-09T16:19:08.983Z,101091.85
2023-05-09T16:21:37.081Z,101095.66
2023-05-09T16:24:04.335Z,101093.20
2023-05-09T16:26:31.652Z,101100.16
2023-05-09T16:28:58.172Z,101099.06
2023-05-09T16:31:25.780Z,101097.81
2023-05-09T16:33:53.482Z,101097.05
2023-05-09T16:36:20.389Z,101100.33
2023-05-09T16:38:49.389Z,101094.46
2023-05-09T16:41:16.380Z,101095.66
2023-05-09T16:43:43.222Z,101093.18
2023-05-09T16:46:09.875Z,101100.26
2023-05-09T16:48:36.478Z,101097.58
2023-05-09T16:51:03.614Z,101099.20
2023-05-09T16:53:30.292Z,101102.58
2023-05-09T16:55:57.011Z,101101.86
2023-05-09T16:58:24.594Z,101101.29
2023-05-09T17:00:51.481Z,101103.78
2023-05-09T17:03:18.240Z,101103.77
2023-05-09T17:05:44.950Z,101101.02
2023-05-09T17:08:11.500Z,101099.08
2023-05-09T17:10:40.749Z,101102.13
2023-05-09T17:13:09.704Z,101104.32
2023-05-09T17:15:37.782Z,101101.12
2023-05-09T17:18:04.722Z,101104.81
2023-05-09T17:20:31.520Z,101100.11
2023-05-09T17:22:58.065Z,101107.54
2023-05-09T17:25:24.525Z,101105.77
2023-05-09T17:27:51.194Z,101106.66
2023-05-09T17:30:19.404Z,101104.92
2023-05-09T17:32:48.269Z,101103.62
2023-05-09T17:35:14.998Z,101106.11
2023-05-09T17:37:44.095Z,101109.51
2023-05-09T17:40:11.314Z,101109.38
2023-05-09T17:42:39.374Z,101111.60
2023-05-09T17:45:07.151Z,101108.86
2023-05-09T17:47:33.797Z,101110.13
2023-05-09T17:50:00.717Z,101115.25
2023-05-09T17:52:27.203Z,101115.50
2023-05-09T17:54:53.754Z,101114.44
2023-05-09T17:57:20.359Z,101111.70
2023-05-09T17:59:48.021Z,101112.51
2023-05-09T18:02:16.083Z,101114.45
2023-05-09T18:04:44.645Z,101113.85
2023-05-09T18:07:11.325Z,101112.06
2023-05-09T18:09:39.577Z,101114.66
2023-05-09T18:12:06.565Z,101113.91
2023-05-09T18:14:33.083Z,101110.02
2023-05-09T18:16:59.752Z,101111.80
2023-05-09T18:19:26.281Z,101110.92
2023-05-09T18:21:53.161Z,101111.39
2023-05-09T18:24:20.947Z,101117.08
2023-05-09T18:26:48.546Z,101117.03
2023-05-09T18:29:16.411Z,101120.30
2023-05-09T18:31:43.179Z,101116.75
2023-05-09T18:34:10.280Z,101114.27
2023-05-09T18:36:37.049Z,101112.73
2023-05-09T18:39:03.897Z,101112.77
2023-05-09T18:41:32.372Z,101113.06
2023-05-09T18:43:58.962Z,101115.98
2023-05-09T18:46:27.252Z,101114.73
2023-05-09T18:48:54.267Z,101117.30
2023-05-09T18:51:20.961Z,101111.64
2023-05-09T18:53:48.761Z,101115.70
2023-05-09T18:56:17.727Z,101112.37
2023-05-09T18:58:44.364Z,101112.70
2023-05-09T19:01:11.527Z,101111.05
2023-05-09T19:03:45.274Z,101110.14
2023-05-09T19:06:12.776Z,101104.80
2023-05-09T19:08:40.568Z,101099.33
2023-05-09T19:11:07.173Z,101100.56
2023-05-09T19:13:37.818Z,101099.37
2023-05-09T19:16:04.974Z,101100.39
2023-05-09T19:18:31.942Z,101101.30
2023-05-09T19:20:58.543Z,101095.88
2023-05-09T19:23:28.555Z,101096.64
2023-05-09T19:25:55.069Z,101095.45
2023-05-09T19:28:24.590Z,101096.93
2023-05-09T19:30:51.714Z,101092.67
2023-05-09T19:33:19.107Z,101095.87
2023-05-09T19:35:45.977Z,101092.29
2023-05-09T19:38:13.710Z,101094.21
2023-05-09T19:40:40.334Z,101093.13
2023-05-09T19:43:06.877Z,101092.38
2023-05-09T19:45:33.432Z,101090.76
2023-05-09T19:48:00.032Z,101089.69
2023-05-09T19:50:26.877Z,101090.16
2023-05-09T19:52:53.765Z,101088.85
2023-05-09T19:55:20.306Z,101089.81
2023-05-09T19:57:46.814Z,101091.14
2023-05-09T20:00:14.242Z,101090.84
2023-05-09T20:02:41.880Z,101088.80
2023-05-09T20:05:08.687Z,101088.98
2023-05-09T20:07:36.240Z,101090.55
2023-05-09T20:10:03.002Z,101088.88
2023-05-09T20:12:30.531Z,101087.96
2023-05-09T20:14:57.779Z,101089.47
2023-05-09T20:17:27.376Z,101091.41
2023-05-09T20:19:54.129Z,101088.88
2023-05-09T20:22:21.276Z,101086.91
2023-05-09T20:24:48.009Z,101087.95
2023-05-09T20:27:14.755Z,101083.73
2023-05-09T20:29:41.381Z,101081.73
2023-05-09T20:32:08.287Z,101083.39
2023-05-09T20:34:37.671Z,101077.38
2023-05-09T20:37:04.329Z,101075.98
2023-05-09T20:39:31.027Z,101078.24
2023-05-09T20:42:01.550Z,101077.63
2023-05-09T20:44:28.480Z,101076.25
2023-05-09T20:46:55.026Z,101073.30
2023-05-09T20:49:22.385Z,101071.66
2023-05-09T20:51:49.063Z,101074.06
2023-05-09T20:54:17.037Z,101068.36
2023-05-09T20:56:43.556Z,101067.44
2023-05-09T20:59:10.072Z,101069.59
2023-05-09T21:01:39.420Z,101067.35
2023-05-09T21:04:07.663Z,101068.15
2023-05-09T21:06:36.995Z,101067.88
2023-05-09T21:09:05.017Z,101067.06
2023-05-09T21:11:32.552Z,101064.91
2023-05-09T21:14:00.244Z,101067.80
2023-05-09T21:16:27.735Z,101072.21
2023-05-09T21:18:54.239Z,101069.38
2023-05-09T21:21:20.757Z,101068.83
2023-05-09T21:23:47.329Z,101068.48
2023-05-09T21:26:13.968Z,101066.15
2023-05-09T21:28:40.684Z,101065.27
2023-05-09T21:31:08.987Z,101068.65
2023-05-09T21:33:37.821Z,101064.11
2023-05-09T21:36:05.490Z,101059.95
2023-05-09T21:38:32.512Z,101054.98
2023-05-09T21:40:59.248Z,101050.80
2023-05-09T21:43:26.835Z,101049.90
2023-05-09T21:45:54.129Z,101046.06
2023-05-09T21:48:20.976Z,101042.75
2023-05-09T21:50:47.672Z,101040.75
2023-05-09T21:53:14.385Z,101040.92
2023-05-09T21:55:41.165Z,101036.69
2023-05-09T21:58:07.759Z,101033.23
2023-05-09T22:00:34.746Z,101034.34
2023-05-09T22:03:01.438Z,101032.94
2023-05-09T22:05:28.344Z,101025.77
2023-05-09T22:07:55.095Z,101027.82
2023-05-09T22:10:21.914Z,101024.20
2023-05-09T22:12:48.572Z,101026.79
2023-05-09T22:15:15.282Z,101027.76
2023-05-09T22:17:42.411Z,101029.03
2023-05-09T22:20:10.123Z,101026.17
2023-05-09T22:22:37.157Z,101028.40
2023-05-09T22:25:04.954Z,101027.78
2023-05-09T22:27:31.940Z,101024.33
2023-05-09T22:29:58.586Z,101020.58
2023-05-09T22:32:25.847Z,101022.20
2023-05-09T22:34:53.539Z,101019.75
2023-05-09T22:37:20.158Z,101019.94
2023-05-09T22:39:46.753Z,101016.64
2023-05-09T22:42:13.494Z,101018.88
2023-05-09T22:44:40.315Z,101017.33
2023-05-09T22:47:07.624Z,101017.56
2023-05-09T22:49:35.088Z,101014.69
2023-05-09T22:52:02.130Z,101012.16
2023-05-09T22:54:28.878Z,101010.54
2023-05-09T22:56:55.571Z,101003.34
2023-05-09T22:59:22.597Z,101004.81
2023-05-09T23:01:50.222Z,101000.78
2023-05-09T23:04:16.831Z,101003.45
2023-05-09T23:06:43.738Z,101002.98
2023-05-09T23:09:10.438Z,101001.52
2023-05-09T23:11:37.334Z,100999.59
2023-05-09T23:14:04.021Z,101000.43
2023-05-09T23:16:31.426Z,100997.89
2023-05-09T23:18:58.101Z,100997.30
2023-05-09T23:21:24.828Z,100996.09
2023-05-09T23:23:51.501Z,100994.58
2023-05-09T23:26:18.083Z,100995.55
2023-05-09T23:28:44.759Z,100994.54
2023-05-09T23:31:11.417Z,100993.35
2023-05-09T23:33:38.427Z,100991.42
2023-05-09T23:36:05.958Z,100989.55
2023-05-09T23:38:32.518Z,100983.64
2023-05-09T23:41:00.409Z,100980.23
2023-05-09T23:43:26.965Z,100984.92
2023-05-09T23:45:53.914Z,100985.28
2023-05-09T23:48:20.755Z,100983.80
2023-05-09T23:50:48.790Z,100977.77
2023-05-09T23:53:16.068Z,100980.55
2023-05-09T23:55:42.582Z,100977.48
2023-05-09T23:58:09.156Z,100975.87
